Time;durP1;ratioP1;P1;durP2;ratioP2;P2;SDS_P1;SDS_P2;PMS_P1;PMS_P2;Temp;Humidity;BMP_temperature;BMP_pressure;BME280_temperature;BME280_humidity;BME280_pressure;Samples;Min_cycle;Max_cycle;Signal;HPM_P1;HPM_P2
2022/08/17 00:00:56;;;;;;;27.33;21.38;;;;;;;24.11;58.11;100850.56;5116888;28;20076;-65
2022/08/17 00:03:24;;;;;;;30.13;22.00;;;;;;;23.99;58.13;100850.19;5116673;28;20032;-66
2022/08/17 00:05:58;;;;;;;27.13;22.13;;;;;;;24.07;57.84;100847.16;5116684;28;20028;-64
2022/08/17 00:08:30;;;;;;;29.50;22.67;;;;;;;24.04;58.28;100849.13;5116568;28;20020;-65
2022/08/17 00:10:57;;;;;;;26.08;21.85;;;;;;;24.06;58.44;100841.81;5116592;28;20389;-65
2022/08/17 00:13:28;;;;;;;29.38;22.58;;;;;;;24.10;58.09;100843.41;5116378;28;20169;-65
2022/08/17 00:15:58;;;;;;;28.58;23.13;;;;;;;23.95;58.84;100836.91;5116389;28;20031;-64
2022/08/17 00:18:28;;;;;;;29.30;23.23;;;;;;;23.90;59.02;100836.25;5116639;28;20024;-65
2022/08/17 00:20:55;;;;;;;28.70;23.23;;;;;;;23.87;59.24;100839.94;5116277;28;20024;-63
2022/08/17 00:23:21;;;;;;;30.75;23.05;;;;;;;23.90;58.80;100830.84;5116109;28;20036;-66
2022/08/17 00:25:47;;;;;;;30.80;23.92;;;;;;;23.82;59.30;100831.19;5116228;28;20100;-65
2022/08/17 00:28:15;;;;;;;31.02;24.80;;;;;;;23.66;60.53;100822.88;5115958;28;20019;-66
2022/08/17 00:30:44;;;;;;;30.52;24.45;;;;;;;23.68;60.35;100821.00;5116228;28;20099;-64
2022/08/17 00:33:14;;;;;;;31.80;24.63;;;;;;;23.67;60.03;100819.22;5116026;28;20546;-65
2022/08/17 00:35:40;;;;;;;31.70;25.48;;;;;;;23.48;60.84;100811.03;5116053;28;20073;-66
2022/08/17 00:38:08;;;;;;;30.65;25.38;;;;;;;23.49;60.83;100806.53;5115958;28;20035;-65
2022/08/17 00:40:50;;;;;;;33.03;25.88;;;;;;;23.52;60.22;100805.53;5115932;28;20035;-64
2022/08/17 00:43:41;;;;;;;30.20;25.95;;;;;;;23.52;59.95;100806.41;5115630;28;20052;-66
2022/08/17 00:46:13;;;;;;;30.02;24.17;;;;;;;23.37;60.99;100805.22;5116062;28;20066;-66
2022/08/17 00:48:39;;;;;;;;;;;;;;;23.58;58.23;100814.22;5116345;28;20065;-66
2022/08/17 00:51:11;;;;;;;31.90;26.55;;;;;;;23.46;61.20;100807.50;5114662;28;19915;-64
2022/08/17 00:53:41;;;;;;;27.88;24.92;;;;;;;23.55;60.87;100805.38;5115685;28;20030;-66
2022/08/17 00:56:13;;;;;;;34.03;27.17;;;;;;;23.47;61.17;100809.28;5115926;28;20034;-64
2022/08/17 00:58:39;;;;;;;32.20;26.70;;;;;;;23.55;61.01;100810.75;5115672;28;20028;-65
2022/08/17 01:01:08;;;;;;;29.50;26.38;;;;;;;23.57;61.21;100814.28;5115868;28;20386;-66
2022/08/17 01:03:36;;;;;;;32.15;28.02;;;;;;;23.57;61.07;100815.16;5115239;28;20015;-67
2022/08/17 01:06:03;;;;;;;29.98;26.70;;;;;;;23.54;61.35;100812.59;5115637;28;20076;-63
2022/08/17 01:08:30;;;;;;;30.65;25.90;;;;;;;23.64;60.78;100804.97;5115483;28;20020;-66
2022/08/17 01:11:00;;;;;;;32.00;27.15;;;;;;;23.68;60.97;100798.50;5097179;28;20066;-65
2022/08/17 01:13:27;;;;;;;32.00;27.10;;;;;;;23.47;62.13;100803.91;5115167;28;20027;-66
2022/08/17 01:16:01;;;;;;;32.47;26.50;;;;;;;23.55;61.43;100805.38;5115558;28;20032;-64
2022/08/17 01:18:27;;;;;;;33.53;27.13;;;;;;;23.41;61.70;100797.88;5115312;28;20076;-66
2022/08/17 01:20:56;;;;;;;28.77;24.30;;;;;;;23.55;61.52;100802.66;5115358;28;20098;-64
2022/08/17 01:23:24;;;;;;;29.05;26.05;;;;;;;23.47;61.29;100795.81;5115262;28;20020;-64
2022/08/17 01:25:53;;;;;;;30.45;26.83;;;;;;;23.44;61.81;100795.06;5115201;28;20038;-64
2022/08/17 01:28:19;;;;;;;32.63;27.67;;;;;;;23.45;61.06;100794.97;5115101;28;20019;-65
2022/08/17 01:30:46;;;;;;;28.98;25.45;;;;;;;23.49;61.31;100785.81;5114745;28;20154;-64
2022/08/17 01:33:11;;;;;;;29.65;25.90;;;;;;;23.48;61.28;100784.06;5115000;28;20024;-65
2022/08/17 01:35:37;;;;;;;29.10;25.75;;;;;;;23.55;61.26;100787.34;5114825;28;20023;-65
2022/08/17 01:38:04;;;;;;;31.25;26.05;;;;;;;23.54;61.05;100776.66;5114807;28;20042;-64
2022/08/17 01:40:34;;;;;;;27.98;25.00;;;;;;;23.50;61.26;100778.59;5115082;28;20027;-65
2022/08/17 01:43:18;;;;;;;29.95;26.35;;;;;;;23.48;60.55;100775.09;5114528;28;20044;-67
2022/08/17 01:45:47;;;;;;;29.25;25.80;;;;;;;23.35;61.96;100776.59;5114841;28;20036;-65
2022/08/17 01:48:13;;;;;;;28.92;25.42;;;;;;;23.35;61.86;100769.38;5096255;28;20015;-64
2022/08/17 01:50:42;;;;;;;30.17;26.67;;;;;;;23.24;61.93;100772.50;5114594;28;20115;-64
2022/08/17 01:53:16;;;;;;;31.60;25.25;;;;;;;23.29;61.66;100769.63;5114651;28;20053;-65
2022/08/17 01:55:47;;;;;;;34.65;25.95;;;;;;;23.23;61.94;100773.47;5114404;28;20031;-65
2022/08/17 01:58:12;;;;;;;29.23;25.80;;;;;;;23.24;61.91;100771.63;5114592;28;20023;-63
2022/08/17 02:00:39;;;;;;;28.80;25.80;;;;;;;23.28;62.02;100775.97;5114456;28;20035;-64
2022/08/17 02:03:06;;;;;;;31.70;25.60;;;;;;;23.28;61.85;100775.09;5114532;28;20015;-64
2022/08/17 02:05:34;;;;;;;28.92;25.83;;;;;;;23.20;62.17;100778.09;5114546;28;20022;-65
2022/08/17 02:08:00;;;;;;;29.40;25.88;;;;;;;23.08;62.84;100778.63;5114301;28;20038;-65
2022/08/17 02:10:27;;;;;;;31.45;25.00;;;;;;;23.04;62.90;100772.50;5114200;28;20019;-65
2022/08/17 02:12:53;;;;;;;28.38;24.83;;;;;;;22.96;63.41;100770.13;5113970;28;20026;-66
2022/08/17 02:15:19;;;;;;;31.80;25.40;;;;;;;22.96;63.31;100769.25;5114446;28;20035;-64
2022/08/17 02:17:45;;;;;;;30.55;25.08;;;;;;;22.91;63.36;100763.16;5114241;28;20035;-65
2022/08/17 02:20:11;;;;;;;28.30;24.65;;;;;;;22.96;63.07;100763.88;5114330;28;20020;-65
2022/08/17 02:22:38;;;;;;;27.25;24.17;;;;;;;22.97;62.82;100762.91;5113942;28;20042;-65
2022/08/17 02:25:05;;;;;;;27.48;24.55;;;;;;;22.99;62.63;100767.28;5113834;28;20505;-64
2022/08/17 02:27:31;;;;;;;27.85;24.48;;;;;;;23.01;62.65;100761.84;5113831;28;20032;-65
2022/08/17 02:29:56;;;;;;;32.50;25.27;;;;;;;22.92;63.12;100762.25;5113815;28;20382;-65
2022/08/17 02:32:25;;;;;;;36.67;25.30;;;;;;;23.01;62.67;100769.94;5113944;28;20055;-65
2022/08/17 02:34:50;;;;;;;36.22;26.10;;;;;;;23.01;62.60;100767.25;5113947;28;20057;-65
2022/08/17 02:37:17;;;;;;;29.38;25.85;;;;;;;23.02;62.77;100768.13;5113719;28;20024;-65
2022/08/17 02:39:44;;;;;;;28.70;25.25;;;;;;;23.02;62.59;100766.28;5113699;28;20031;-65
2022/08/17 02:42:11;;;;;;;31.73;26.20;;;;;;;22.91;63.28;100763.16;5113909;28;20023;-65
2022/08/17 02:44:37;;;;;;;30.55;26.13;;;;;;;22.95;62.41;100757.59;5113787;28;20027;-66
2022/08/17 02:47:03;;;;;;;31.77;25.70;;;;;;;22.95;62.66;100759.41;5113935;28;20031;-66
2022/08/17 02:49:29;;;;;;;29.55;26.50;;;;;;;22.85;63.63;100755.31;5095318;28;20415;-65
2022/08/17 02:51:56;;;;;;;33.90;27.23;;;;;;;22.75;63.98;100747.59;5113447;28;20085;-66
2022/08/17 02:54:22;;;;;;;31.83;26.92;;;;;;;22.72;64.05;100753.13;5113423;28;20083;-64
2022/08/17 02:56:47;;;;;;;31.05;27.65;;;;;;;22.65;64.28;100751.59;5113323;28;20412;-65
2022/08/17 02:59:13;;;;;;;33.70;26.83;;;;;;;22.69;63.92;100746.97;5113720;28;20034;-66
2022/08/17 03:01:38;;;;;;;31.23;27.85;;;;;;;22.58;64.38;100738.47;5113396;28;20191;-65
2022/08/17 03:04:04;;;;;;;35.72;26.73;;;;;;;22.63;64.37;100745.41;5113482;28;20036;-65
2022/08/17 03:06:30;;;;;;;33.35;28.23;;;;;;;22.62;64.06;100740.97;5113227;28;20039;-66
2022/08/17 03:08:56;;;;;;;30.73;27.52;;;;;;;22.58;64.43;100738.47;5113626;28;20028;-64
2022/08/17 03:11:22;;;;;;;30.83;27.48;;;;;;;22.54;64.64;100745.78;5113493;28;20504;-64
2022/08/17 03:13:48;;;;;;;33.60;28.60;;;;;;;22.51;64.90;100735.13;5115457;28;20052;-66
2022/08/17 03:16:13;;;;;;;29.90;26.65;;;;;;;22.58;64.53;100733.97;5117635;28;20481;-65
2022/08/17 03:18:38;;;;;;;32.28;28.17;;;;;;;22.45;65.20;100736.28;5117505;28;20030;-65
2022/08/17 03:21:05;;;;;;;32.13;27.23;;;;;;;22.39;65.12;100738.31;5117461;28;20023;-64
2022/08/17 03:23:31;;;;;;;30.80;26.77;;;;;;;22.28;65.30;100744.13;5117202;28;20484;-65
2022/08/17 03:25:57;;;;;;;35.70;27.13;;;;;;;22.14;66.15;100739.31;5117633;28;20028;-64
2022/08/17 03:28:23;;;;;;;34.20;26.83;;;;;;;22.19;65.93;100736.44;5117366;28;20100;-65
2022/08/17 03:30:49;;;;;;;30.67;26.80;;;;;;;22.12;66.38;100741.16;5117330;28;20474;-63
2022/08/17 03:33:15;;;;;;;31.65;26.90;;;;;;;22.10;66.01;100740.31;5117397;28;20030;-64
2022/08/17 03:35:41;;;;;;;29.27;26.13;;;;;;;22.14;66.11;100747.38;5117119;28;20354;-65
2022/08/17 03:38:09;;;;;;;30.63;26.05;;;;;;;22.16;65.75;100748.19;5099001;28;20510;-65
2022/08/17 03:40:35;;;;;;;30.40;26.95;;;;;;;22.16;65.67;100740.09;5117011;28;20461;-65
2022/08/17 03:43:05;;;;;;;29.65;26.20;;;;;;;22.10;66.35;100745.72;5116944;28;20040;-64
2022/08/17 03:57:01;;;;;;;28.27;24.95;;;;;;;22.02;66.21;100758.56;5117073;28;20034;-64
2022/08/17 03:59:26;;;;;;;34.00;26.00;;;;;;;21.98;66.80;100756.94;5116835;28;20034;-65
2022/08/17 04:01:55;;;;;;;29.95;25.13;;;;;;;22.02;66.50;100763.09;5116611;28;20031;-65
2022/08/17 04:04:21;;;;;;;30.10;26.52;;;;;;;21.92;67.10;100757.16;5116743;28;20182;-65
2022/08/17 04:06:46;;;;;;;33.38;26.13;;;;;;;21.98;66.85;100762.31;5116622;28;20492;-65
2022/08/17 04:09:12;;;;;;;29.23;26.13;;;;;;;22.00;67.04;100757.75;5116533;28;20042;-65
2022/08/17 04:11:38;;;;;;;30.50;26.20;;;;;;;21.96;67.15;100767.72;5116804;28;20028;-65
2022/08/17 04:14:05;;;;;;;32.38;26.58;;;;;;;22.06;66.61;100770.97;5116453;28;20523;-65
2022/08/17 04:16:31;;;;;;;31.50;25.52;;;;;;;22.09;66.93;100772.66;5116419;28;20020;-65
2022/08/17 04:18:56;;;;;;;28.58;25.23;;;;;;;22.11;66.63;100774.38;5116349;28;20039;-66
2022/08/17 04:21:22;;;;;;;30.00;25.92;;;;;;;22.10;66.68;100786.06;5117015;28;20023;-65
2022/08/17 04:23:48;;;;;;;29.38;24.15;;;;;;;22.19;66.35;100793.81;5115979;28;20478;-63
2022/08/17 04:26:14;;;;;;;30.05;24.67;;;;;;;22.15;66.86;100810.16;5116346;28;20438;-64
2022/08/17 04:28:40;;;;;;;31.20;25.67;;;;;;;22.11;67.32;100820.13;5116242;28;20020;-63
2022/08/17 04:31:08;;;;;;;33.10;25.73;;;;;;;22.10;67.49;100818.38;5116246;28;20512;-64
2022/08/17 04:33:36;;;;;;;31.45;27.13;;;;;;;21.95;68.92;100817.09;5115936;28;20023;-66
2022/08/17 04:36:04;;;;;;;31.08;27.65;;;;;;;21.88;69.67;100806.63;5115957;28;20384;-65
2022/08/17 04:38:32;;;;;;;35.13;28.90;;;;;;;21.81;69.78;100797.91;5116059;28;20066;-65
2022/08/17 04:43:46;;;;;;;32.35;28.48;;;;;;;21.74;70.45;100820.56;5084011;28;20122;-65
2022/08/17 04:46:18;;;;;;;33.03;28.10;;;;;;;21.72;70.58;100827.84;5115793;28;20480;-66
2022/08/17 04:48:49;;;;;;;34.53;29.13;;;;;;;21.76;70.30;100853.69;5115838;28;20027;-65
2022/08/17 04:51:17;;;;;;;31.02;26.95;;;;;;;21.78;70.15;100857.19;5115789;28;20062;-64
2022/08/17 04:53:45;;;;;;;32.55;27.05;;;;;;;21.97;70.01;100849.38;5115394;28;20027;-65
2022/08/17 04:56:16;;;;;;;33.30;27.50;;;;;;;21.97;69.92;100852.06;5115823;28;20020;-64
2022/08/17 04:58:47;;;;;;;31.70;25.83;;;;;;;22.08;68.93;100849.81;5115681;28;20032;-65
2022/08/17 05:01:13;;;;;;;33.65;27.30;;;;;;;22.04;69.41;100832.03;5115812;28;20016;-65
2022/08/17 05:03:40;;;;;;;33.58;27.52;;;;;;;22.04;69.55;100845.50;5097248;28;20067;-64
2022/08/17 05:06:06;;;;;;;33.42;27.75;;;;;;;21.95;70.16;100822.50;5115579;28;20521;-65
2022/08/17 05:08:31;;;;;;;35.97;27.77;;;;;;;21.90;70.47;100848.69;5115396;28;20028;-64
2022/08/17 05:10:57;;;;;;;30.25;26.77;;;;;;;21.91;70.63;100831.59;5115360;28;20484;-66
2022/08/17 05:13:25;;;;;;;30.85;26.45;;;;;;;21.96;70.12;100850.28;5115616;28;20027;-65
2022/08/17 05:15:54;;;;;;;30.45;26.85;;;;;;;21.94;70.75;100844.09;5115047;28;20024;-64
2022/08/17 05:18:20;;;;;;;29.95;26.67;;;;;;;21.99;70.72;100842.09;5115324;28;20028;-64
2022/08/17 05:20:46;;;;;;;25.15;21.40;;;;;;;22.11;68.58;100840.78;5115271;28;20023;-64
2022/08/17 05:23:15;;;;;;;29.58;25.45;;;;;;;22.09;70.11;100834.56;5115100;28;20051;-64
2022/08/17 05:25:44;;;;;;;32.15;25.73;;;;;;;22.06;70.26;100834.69;5115160;28;20047;-65
2022/08/17 05:28:10;;;;;;;27.65;24.65;;;;;;;22.14;69.95;100830.81;5114972;28;20409;-66
2022/08/17 05:30:38;;;;;;;30.58;24.67;;;;;;;22.12;70.30;100829.06;5115242;28;20058;-66
2022/08/17 05:33:25;;;;;;;28.50;24.75;;;;;;;22.14;69.92;100833.50;5114857;28;20028;-66
2022/08/17 05:35:54;;;;;;;28.85;24.40;;;;;;;22.09;70.52;100838.13;5114535;28;20050;-65
2022/08/17 05:38:22;;;;;;;28.00;24.73;;;;;;;22.08;70.68;100831.00;5114781;28;20407;-63
2022/08/17 05:40:48;;;;;;;28.45;24.00;;;;;;;22.11;70.40;100827.31;5114672;28;20023;-65
2022/08/17 05:43:20;;;;;;;30.42;24.42;;;;;;;22.09;70.70;100819.28;5114391;28;20047;-65
2022/08/17 05:45:53;;;;;;;29.30;24.95;;;;;;;22.12;70.91;100816.53;5114617;28;20040;-66
2022/08/17 05:48:19;;;;;;;28.95;24.10;;;;;;;22.12;70.79;100819.22;5114845;28;20381;-65
2022/08/17 05:50:56;;;;;;;29.02;24.33;;;;;;;22.11;70.82;100819.25;5114641;28;20027;-65
2022/08/17 05:53:43;;;;;;;34.80;25.33;;;;;;;22.24;69.92;100816.06;5114509;28;20036;-66
2022/08/17 05:56:30;;;;;;;33.35;24.55;;;;;;;22.27;70.40;100816.88;5114418;28;20023;-64
2022/08/17 05:59:37;;;;;;;31.45;24.65;;;;;;;22.38;69.64;100822.72;5114547;28;20089;-66
2022/08/17 06:02:21;;;;;;;27.75;24.77;;;;;;;22.51;69.63;100813.22;5114718;28;20160;-65
2022/08/17 06:05:14;;;;;;;31.42;24.65;;;;;;;22.70;69.03;100816.97;5114397;28;20030;-65
2022/08/17 06:07:47;;;;;;;30.98;24.48;;;;;;;22.87;68.90;100807.31;5114322;28;20027;-66
2022/08/17 06:10:32;;;;;;;27.33;22.98;;;;;;;23.17;67.72;100813.31;5114260;28;20031;-64
2022/08/17 06:13:17;;;;;;;27.23;23.48;;;;;;;23.40;67.80;100820.41;5114197;28;20431;-64
2022/08/17 06:16:08;;;;;;;25.50;22.48;;;;;;;23.43;67.41;100821.16;5114231;28;20028;-66
2022/08/17 06:19:12;;;;;;;25.02;21.40;;;;;;;23.54;66.20;100831.47;5114187;28;20110;-65
2022/08/17 06:21:43;;;;;;;26.45;20.33;;;;;;;23.55;65.73;100844.00;5114038;28;20032;-65
2022/08/17 06:24:40;;;;;;;23.77;20.25;;;;;;;23.60;65.58;100854.63;5113916;28;20023;-66
2022/08/17 06:27:15;;;;;;;23.38;19.70;;;;;;;23.54;65.74;100866.53;5114095;28;20357;-64
2022/08/17 06:29:45;;;;;;;24.42;19.73;;;;;;;23.51;65.72;100861.28;5113959;28;20107;-66
2022/08/17 06:32:13;;;;;;;24.17;19.83;;;;;;;23.47;65.31;100865.94;5114133;28;20031;-65
2022/08/17 06:34:42;;;;;;;23.70;19.35;;;;;;;23.49;65.19;100864.03;5113971;28;20028;-65
2022/08/17 06:37:32;;;;;;;22.98;19.63;;;;;;;23.47;65.13;100863.25;5113768;28;20032;-66
2022/08/17 06:40:16;;;;;;;23.23;19.50;;;;;;;23.42;65.58;100875.13;5113948;28;20086;-64
2022/08/17 06:43:00;;;;;;;25.60;19.88;;;;;;;23.41;65.08;100873.38;5113535;28;20051;-64
2022/08/17 06:45:40;;;;;;;22.83;18.92;;;;;;;23.36;65.60;100865.50;5113779;28;20413;-65
2022/08/17 06:48:14;;;;;;;22.00;18.65;;;;;;;23.33;65.53;100872.84;5112745;28;20131;-64
2022/08/17 06:50:52;;;;;;;25.15;18.23;;;;;;;23.28;65.77;100872.16;5113613;28;20056;-65
2022/08/17 06:53:35;;;;;;;20.05;18.05;;;;;;;23.22;65.98;100873.28;5113519;28;20153;-65
2022/08/17 06:56:05;;;;;;;20.75;18.05;;;;;;;23.19;66.70;100874.28;5113418;28;20030;-65
2022/08/17 06:58:32;;;;;;;22.55;18.52;;;;;;;23.23;66.23;100878.63;5113608;28;20019;-65
2022/08/17 07:01:04;;;;;;;22.13;19.02;;;;;;;23.23;66.57;100885.81;5113425;28;20031;-65
2022/08/17 07:03:36;;;;;;;24.10;20.63;;;;;;;23.25;65.83;100892.03;5113648;28;20023;-66
2022/08/17 07:06:11;;;;;;;32.85;20.35;;;;;;;23.29;65.45;100888.25;5113205;28;20024;-64
2022/08/17 07:08:54;;;;;;;25.02;19.10;;;;;;;23.36;65.57;100881.69;5113435;28;20051;-64
2022/08/17 07:11:26;;;;;;;25.10;18.25;;;;;;;23.41;65.13;100892.28;5113458;28;20019;-65
2022/08/17 07:14:25;;;;;;;27.52;19.10;;;;;;;23.49;64.67;100891.00;5113249;28;20027;-65
2022/08/17 07:16:54;;;;;;;27.35;18.45;;;;;;;23.46;65.48;100884.84;5113111;28;20427;-63
2022/08/17 07:19:23;;;;;;;28.77;18.65;;;;;;;23.49;64.95;100888.31;5113708;28;20024;-65
2022/08/17 07:22:19;;;;;;;29.08;19.30;;;;;;;23.56;64.65;100888.06;5113398;28;20377;-64
2022/08/17 07:24:57;;;;;;;24.55;18.17;;;;;;;23.54;64.65;100882.72;5113101;28;20483;-65
2022/08/17 07:27:40;;;;;;;20.38;18.13;;;;;;;23.52;64.99;100895.41;5113183;28;20039;-65
2022/08/17 07:30:16;;;;;;;23.23;18.65;;;;;;;23.53;64.69;100893.59;5113586;28;20023;-65
2022/08/17 07:32:58;;;;;;;20.70;18.40;;;;;;;23.58;64.23;100880.78;5113401;28;20024;-66
2022/08/17 07:35:43;;;;;;;24.05;17.90;;;;;;;23.58;64.93;100895.13;5113230;28;20145;-66
2022/08/17 07:38:13;;;;;;;19.25;17.13;;;;;;;23.69;64.36;100895.59;5113359;28;20020;-63
2022/08/17 07:40:41;;;;;;;24.33;17.95;;;;;;;23.74;64.32;100895.41;5113034;28;20031;-66
2022/08/17 07:43:21;;;;;;;23.40;16.23;;;;;;;23.80;63.72;100899.66;5112896;28;20055;-64
2022/08/17 07:48:38;;;;;;;22.58;16.65;;;;;;;23.86;63.41;100911.06;5113014;28;20042;-65
2022/08/17 07:51:31;;;;;;;18.90;16.48;;;;;;;23.89;63.39;100916.31;5113032;28;20117;-65
2022/08/17 07:54:02;;;;;;;18.83;15.95;;;;;;;23.89;62.87;100918.13;5108936;28;20042;-65
2022/08/17 07:56:39;;;;;;;19.52;16.55;;;;;;;23.93;63.36;100919.75;5112772;28;20028;-66
2022/08/17 07:59:28;;;;;;;21.67;16.13;;;;;;;24.04;62.87;100925.56;5113937;28;20089;-64
2022/08/17 08:01:53;;;;;;;20.80;15.85;;;;;;;24.06;63.33;100933.59;5102942;28;20036;-64
2022/08/17 08:04:28;;;;;;;19.35;16.38;;;;;;;24.09;62.46;100926.25;5116714;28;20501;-65
2022/08/17 08:06:58;;;;;;;19.35;15.57;;;;;;;24.13;62.27;100927.00;5116590;28;20537;-65
2022/08/17 08:10:00;;;;;;;17.67;15.30;;;;;;;24.17;62.54;100932.19;5116604;28;20496;-65
2022/08/17 08:12:45;;;;;;;;;;;;;;;24.28;62.50;100934.41;5117153;28;20085;-64
2022/08/17 08:15:18;;;;;;;18.55;15.27;;;;;;;24.22;62.18;100932.84;5116303;28;19912;-66
2022/08/17 08:17:55;;;;;;;19.25;15.48;;;;;;;24.20;62.49;100931.19;5116687;28;20084;-64
2022/08/17 08:20:32;;;;;;;18.98;15.45;;;;;;;24.33;62.07;100926.13;5116572;28;20019;-65
2022/08/17 08:23:09;;;;;;;20.42;16.65;;;;;;;24.38;62.24;100919.59;5116253;28;20030;-66
2022/08/17 08:26:05;;;;;;;20.67;16.90;;;;;;;24.43;62.09;100916.66;5116334;28;20024;-65
2022/08/17 08:28:51;;;;;;;19.05;15.55;;;;;;;24.52;61.96;100916.25;5116294;28;20465;-65
2022/08/17 08:31:38;;;;;;;18.58;16.45;;;;;;;24.42;61.39;100896.00;5116167;28;20055;-66
2022/08/17 08:34:35;;;;;;;19.65;16.58;;;;;;;24.38;61.65;100880.88;5116062;28;20039;-64
2022/08/17 08:37:15;;;;;;;19.52;16.10;;;;;;;24.39;61.56;100872.72;5116139;28;20068;-64
2022/08/17 08:39:57;;;;;;;20.38;17.75;;;;;;;24.29;61.60;100881.28;5116049;28;20558;-64
2022/08/17 08:42:51;;;;;;;22.50;16.60;;;;;;;24.32;61.53;100910.81;5115988;28;20230;-64
2022/08/17 08:45:55;;;;;;;21.83;17.92;;;;;;;24.37;61.45;100939.44;5116069;28;20089;-65
2022/08/17 08:48:24;;;;;;;22.00;17.83;;;;;;;24.43;61.30;100949.09;5098168;28;20065;-63
2022/08/17 08:51:02;;;;;;;20.15;17.67;;;;;;;24.52;61.62;100954.06;5115935;28;20401;-65
2022/08/17 08:53:50;;;;;;;23.00;18.15;;;;;;;24.69;60.71;100947.88;5115553;28;20153;-65
2022/08/17 08:56:43;;;;;;;24.23;18.45;;;;;;;24.76;61.03;100938.56;5115878;28;20066;-67
2022/08/17 08:59:27;;;;;;;;;;;;;;;25.09;59.92;100929.81;5116379;28;20031;-64
2022/08/17 09:02:05;;;;;;;25.40;18.35;;;;;;;25.07;60.00;100913.63;5115563;28;19943;-65
2022/08/17 09:04:34;;;;;;;21.77;19.33;;;;;;;25.15;58.96;100916.00;5115887;28;20031;-66
2022/08/17 09:07:00;;;;;;;21.52;18.75;;;;;;;25.38;57.96;100917.56;5115495;28;20087;-65
2022/08/17 09:09:37;;;;;;;24.00;19.02;;;;;;;25.53;58.79;100916.81;5115409;28;20473;-66
2022/08/17 09:12:24;;;;;;;22.85;19.50;;;;;;;25.60;57.44;100930.91;5114324;28;20020;-65
2022/08/17 09:15:16;;;;;;;20.73;18.30;;;;;;;25.66;57.70;100927.91;5115440;28;20028;-65
2022/08/17 09:17:48;;;;;;;;;;;;;;;25.78;57.50;100929.13;5115804;28;20438;-65
2022/08/17 09:20:13;;;;;;;26.08;19.63;;;;;;;25.66;56.38;100931.47;5115271;28;19916;-65
2022/08/17 09:22:46;;;;;;;23.70;20.20;;;;;;;25.59;56.88;100939.97;5115006;28;20132;-65
2022/08/17 09:25:20;;;;;;;24.63;20.17;;;;;;;25.55;57.00;100949.19;5115278;28;20076;-65
2022/08/17 09:27:57;;;;;;;25.58;19.80;;;;;;;25.52;57.49;100947.50;5115104;28;20055;-64
2022/08/17 09:30:25;;;;;;;25.95;18.92;;;;;;;25.53;57.38;100951.13;5115040;28;20465;-65
2022/08/17 09:33:00;;;;;;;24.45;18.92;;;;;;;25.46;58.09;100964.06;5115090;28;20066;-64
2022/08/17 09:35:38;;;;;;;21.63;18.67;;;;;;;25.45;57.65;100957.78;5115214;28;20063;-65
2022/08/17 09:38:09;;;;;;;25.13;18.98;;;;;;;25.43;57.52;100969.63;5114753;28;20031;-65
2022/08/17 09:40:44;;;;;;;24.08;18.88;;;;;;;25.35;58.18;100972.72;5114700;28;20058;-66
2022/08/17 09:43:37;;;;;;;24.75;18.80;;;;;;;25.31;58.29;100995.47;5114644;28;20097;-66
2022/08/17 09:46:10;;;;;;;23.38;19.23;;;;;;;25.16;58.33;100991.66;5090116;28;20084;-66
2022/08/17 09:49:00;;;;;;;26.73;20.35;;;;;;;25.03;58.83;101009.38;5114770;28;20024;-65
2022/08/17 09:51:34;;;;;;;25.88;21.40;;;;;;;24.71;60.41;101024.34;5114770;28;20107;-66
2022/08/17 09:53:59;;;;;;;26.05;20.73;;;;;;;24.39;61.96;101020.41;5114363;28;20025;-66
2022/08/17 09:56:39;;;;;;;23.55;21.08;;;;;;;24.10;62.47;101029.72;5114682;28;20032;-65
2022/08/17 09:59:26;;;;;;;32.72;21.27;;;;;;;23.95;63.45;101023.16;5114512;28;20027;-64
2022/08/17 10:02:19;;;;;;;23.38;20.88;;;;;;;23.81;65.10;101017.44;5114528;28;20509;-65
2022/08/17 10:05:06;;;;;;;27.63;21.42;;;;;;;23.77;65.01;101026.59;5096578;28;20057;-64
2022/08/17 10:07:38;;;;;;;30.38;21.15;;;;;;;23.78;66.57;101020.28;5114430;28;20175;-66
2022/08/17 10:10:13;;;;;;;24.63;21.95;;;;;;;23.78;66.61;101022.97;5114364;28;20051;-67
2022/08/17 10:13:04;;;;;;;26.77;20.10;;;;;;;23.76;66.17;101030.25;5114227;28;20023;-66
2022/08/17 10:15:47;;;;;;;25.50;20.77;;;;;;;23.77;66.78;101027.50;5114187;28;20055;-68
2022/08/17 10:18:20;;;;;;;29.05;22.25;;;;;;;23.71;68.30;101030.44;5114356;28;20080;-70
2022/08/17 10:26:58;;;;;;;26.23;21.42;;;;;;;23.28;69.57;101037.50;5114449;28;20088;-71
2022/08/17 10:29:40;;;;;;;26.20;21.63;;;;;;;23.34;69.51;101034.59;5114000;28;20024;-71
2022/08/17 10:32:09;;;;;;;;;;;;;;;23.51;66.99;101039.31;5114420;28;20102;-71
2022/08/17 10:34:52;;;;;;;29.10;21.73;;;;;;;23.39;70.39;101027.19;5113703;28;19912;-70
2022/08/17 10:37:39;;;;;;;27.90;23.27;;;;;;;23.29;72.00;101014.13;5113875;28;20036;-69
2022/08/17 10:40:16;;;;;;;31.13;24.05;;;;;;;23.21;72.70;100996.44;5113924;28;20489;-69
2022/08/17 10:42:47;;;;;;;27.92;23.70;;;;;;;23.14;73.94;100992.22;5113437;28;20051;-68
2022/08/17 10:45:30;;;;;;;28.23;22.98;;;;;;;23.06;73.87;100980.84;5113931;28;20031;-68
2022/08/17 10:48:20;;;;;;;28.75;21.77;;;;;;;22.99;74.41;100971.25;5114017;28;20046;-69
2022/08/17 10:50:54;;;;;;;26.70;22.23;;;;;;;23.01;75.24;100977.47;5113431;28;20050;-69
2022/08/17 10:53:32;;;;;;;28.42;23.38;;;;;;;23.02;75.50;100972.94;5113420;28;20028;-70
2022/08/17 10:56:12;;;;;;;25.38;22.65;;;;;;;23.01;75.22;100965.81;5113590;28;20412;-70
2022/08/17 10:58:54;;;;;;;29.83;23.98;;;;;;;22.90;76.22;100964.38;5113450;28;20072;-71
2022/08/17 11:01:32;;;;;;;27.73;23.65;;;;;;;23.02;76.34;100975.66;5113581;28;20035;-69
2022/08/17 11:04:43;;;;;;;27.27;23.08;;;;;;;22.94;75.78;100978.63;5113252;28;20016;-71
2022/08/17 11:07:26;;;;;;;28.42;24.13;;;;;;;22.96;76.52;100977.66;5081827;28;20031;-69
2022/08/17 11:10:02;;;;;;;27.52;23.48;;;;;;;22.86;76.68;100973.50;5113459;28;20157;-71
2022/08/17 11:12:36;;;;;;;27.75;23.95;;;;;;;22.81;77.70;100970.09;5113243;28;20023;-71
2022/08/17 11:15:23;;;;;;;27.92;23.65;;;;;;;22.82;77.45;100979.06;5113583;28;20036;-72
2022/08/17 11:18:06;;;;;;;28.42;23.77;;;;;;;22.84;77.70;100979.91;5113285;28;20461;-71
2022/08/17 11:21:03;;;;;;;29.63;23.98;;;;;;;22.86;77.26;100986.97;5113245;28;20106;-71
2022/08/17 11:23:31;;;;;;;29.58;23.88;;;;;;;22.81;77.45;100986.25;5113228;28;20043;-70
2022/08/17 11:26:02;;;;;;;26.67;23.95;;;;;;;22.82;77.72;100987.13;5113166;28;20016;-73
2022/08/17 11:28:33;;;;;;;26.05;23.25;;;;;;;22.87;77.03;101002.22;5113330;28;20027;-71
2022/08/17 11:31:08;;;;;;;26.52;23.73;;;;;;;22.90;76.66;100999.41;5113194;28;20076;-73
2022/08/17 11:33:34;;;;;;;28.35;24.23;;;;;;;22.90;77.40;101007.50;5113140;28;20374;-72
2022/08/17 11:36:17;;;;;;;27.75;24.17;;;;;;;22.89;77.67;101005.72;5117488;28;20492;-71
2022/08/17 11:39:01;;;;;;;26.70;23.80;;;;;;;22.96;77.50;101020.75;5117237;28;20431;-73
2022/08/17 11:41:47;;;;;;;28.30;23.65;;;;;;;23.01;75.58;101030.50;5117055;28;20058;-73
2022/08/17 11:44:29;;;;;;;29.88;23.95;;;;;;;22.89;76.26;101039.88;5116866;28;20078;-72
2022/08/17 11:53:38;;;;;;;27.42;24.48;;;;;;;23.07;76.18;101049.13;5117244;28;20086;-71
2022/08/17 11:56:23;;;;;;;28.20;25.00;;;;;;;23.04;76.46;101041.13;5105063;28;20044;-70
2022/08/17 11:58:49;;;;;;;31.67;25.95;;;;;;;23.07;76.98;101051.81;5098665;28;20028;-69
2022/08/17 12:01:20;;;;;;;32.35;25.77;;;;;;;23.07;76.84;101054.50;5116787;28;20032;-69
2022/08/17 12:03:47;;;;;;;30.35;26.73;;;;;;;23.03;77.25;101066.34;5116695;28;20028;-69
2022/08/17 12:06:30;;;;;;;29.63;26.30;;;;;;;23.09;77.48;101069.69;5116834;28;20470;-71
2022/08/17 12:09:09;;;;;;;29.05;26.05;;;;;;;23.16;76.58;101068.50;5116668;28;20032;-71
2022/08/17 12:12:23;;;;;;;30.08;26.77;;;;;;;23.17;76.81;101069.41;5116781;28;20038;-70